ZSSS METAR and TAF | Updated Today

ZSSS METAR

Shanghai Hongqiao International Airport

Observation time: 9 min. ago

ZSSS 032200Z 23001MPS 6000 NSC 04/02 Q1029 NOSIG

Need help? Read our tutorial on how to read METARs or read the parsed version below.

Shanghai Hongqiao International Airport (ZSSS) METAR

  • Weather conditions on Fri, 03 Dec 2021 22:00:00 +0000 (9 min. ago):
  • Present conditions: Dry
  • Clouds: No significant clouds are observed
  • Visibility: 6000 meters
  • Wind: 230 degrees at 1 knots
  • Temperature: 4 celsius
  • Dew point: 2 celsius
  • Pressure: 1029 millibars
  • Remarks: None


Useful to know...

ZSSS TAF

Shanghai Hongqiao International Airport

TAF ZSSS 031506Z 0318/0418 36004MPS 5000 BR SCT030 TX14/0406Z TN05/0322Z TEMPO 0321/0401 0800 FG
Observation time: 7:03 hr. ago
Need help? Read our tutorial on how to read TAFs or read the parsed version below.

Parsed version of TAF for Shanghai Hongqiao International Airport (ZSSS)

  • From 03 December at 18:00 UTC, to day 04 of the month at 18:00 UTC
  • Clouds: Scattered at 914 meters
  • Visibility: 5000 meters
  • Wind: 360 degrees at 4
  • Other: Mist
  • Expected to arise temporarily, from 03 December at 21:00 UTC, to day 04 of the month at 01:00 UTC
  • Visibility: 800 meters
  • Other: Fog